sensor_id;sensor_type;location;lat;lon;timestamp;P1;durP1;ratioP1;P2;durP2;ratioP2
8361;SDS011;4218;48.326;14.304;2023-04-29T00:02:17;35.00;;;32.23;;
8361;SDS011;4218;48.326;14.304;2023-04-29T00:04:43;36.70;;;33.70;;
8361;SDS011;4218;48.326;14.304;2023-04-29T00:07:08;74.53;;;69.27;;
8361;SDS011;4218;48.326;14.304;2023-04-29T00:09:33;30.33;;;27.27;;
8361;SDS011;4218;48.326;14.304;2023-04-29T00:12:00;41.83;;;38.73;;
8361;SDS011;4218;48.326;14.304;2023-04-29T00:14:26;37.83;;;34.40;;
8361;SDS011;4218;48.326;14.304;2023-04-29T00:16:51;73.40;;;68.30;;
8361;SDS011;4218;48.326;14.304;2023-04-29T00:19:17;49.40;;;46.00;;
8361;SDS011;4218;48.326;14.304;2023-04-29T00:21:42;42.53;;;39.33;;
8361;SDS011;4218;48.326;14.304;2023-04-29T00:24:08;28.63;;;25.93;;
8361;SDS011;4218;48.326;14.304;2023-04-29T00:26:33;26.40;;;23.80;;
8361;SDS011;4218;48.326;14.304;2023-04-29T00:28:59;28.17;;;24.17;;
8361;SDS011;4218;48.326;14.304;2023-04-29T00:31:25;30.20;;;25.70;;
8361;SDS011;4218;48.326;14.304;2023-04-29T00:33:50;27.40;;;24.87;;
8361;SDS011;4218;48.326;14.304;2023-04-29T00:36:16;35.03;;;32.20;;
8361;SDS011;4218;48.326;14.304;2023-04-29T00:38:41;41.50;;;38.00;;
8361;SDS011;4218;48.326;14.304;2023-04-29T00:41:07;36.87;;;33.73;;
8361;SDS011;4218;48.326;14.304;2023-04-29T00:43:33;30.17;;;27.37;;
8361;SDS011;4218;48.326;14.304;2023-04-29T00:45:58;27.63;;;25.33;;
8361;SDS011;4218;48.326;14.304;2023-04-29T00:48:23;36.90;;;33.70;;
8361;SDS011;4218;48.326;14.304;2023-04-29T00:50:49;38.27;;;35.63;;
8361;SDS011;4218;48.326;14.304;2023-04-29T00:53:15;32.13;;;29.23;;
8361;SDS011;4218;48.326;14.304;2023-04-29T00:55:41;38.53;;;35.83;;
8361;SDS011;4218;48.326;14.304;2023-04-29T00:58:11;32.37;;;29.90;;
8361;SDS011;4218;48.326;14.304;2023-04-29T01:00:37;48.87;;;44.57;;
8361;SDS011;4218;48.326;14.304;2023-04-29T01:03:03;34.93;;;31.93;;
8361;SDS011;4218;48.326;14.304;2023-04-29T01:05:29;32.50;;;29.60;;
8361;SDS011;4218;48.326;14.304;2023-04-29T01:11:09;25.30;;;22.73;;
8361;SDS011;4218;48.326;14.304;2023-04-29T01:16:20;29.60;;;27.10;;
8361;SDS011;4218;48.326;14.304;2023-04-29T01:18:53;29.97;;;27.17;;
8361;SDS011;4218;48.326;14.304;2023-04-29T01:21:23;31.37;;;28.63;;
8361;SDS011;4218;48.326;14.304;2023-04-29T01:23:49;34.60;;;31.07;;
8361;SDS011;4218;48.326;14.304;2023-04-29T01:26:20;28.47;;;25.43;;
8361;SDS011;4218;48.326;14.304;2023-04-29T01:31:31;28.07;;;24.47;;
8361;SDS011;4218;48.326;14.304;2023-04-29T01:34:02;56.73;;;23.60;;
8361;SDS011;4218;48.326;14.304;2023-04-29T01:36:46;31.13;;;28.13;;
8361;SDS011;4218;48.326;14.304;2023-04-29T01:39:36;27.50;;;24.63;;
8361;SDS011;4218;48.326;14.304;2023-04-29T01:42:23;27.97;;;25.27;;
8361;SDS011;4218;48.326;14.304;2023-04-29T01:44:59;28.60;;;25.67;;
8361;SDS011;4218;48.326;14.304;2023-04-29T01:47:29;29.77;;;25.60;;
8361;SDS011;4218;48.326;14.304;2023-04-29T01:49:55;27.93;;;25.27;;
8361;SDS011;4218;48.326;14.304;2023-04-29T01:52:21;28.07;;;25.37;;
8361;SDS011;4218;48.326;14.304;2023-04-29T01:54:47;25.77;;;23.07;;
8361;SDS011;4218;48.326;14.304;2023-04-29T01:57:12;24.70;;;22.30;;
8361;SDS011;4218;48.326;14.304;2023-04-29T01:59:37;24.23;;;21.73;;
8361;SDS011;4218;48.326;14.304;2023-04-29T02:02:03;26.53;;;23.67;;
8361;SDS011;4218;48.326;14.304;2023-04-29T02:04:28;26.93;;;24.27;;
8361;SDS011;4218;48.326;14.304;2023-04-29T02:06:57;27.37;;;22.67;;
8361;SDS011;4218;48.326;14.304;2023-04-29T02:09:22;24.47;;;22.23;;
8361;SDS011;4218;48.326;14.304;2023-04-29T02:11:48;24.50;;;22.13;;
8361;SDS011;4218;48.326;14.304;2023-04-29T02:14:13;55.23;;;28.07;;
8361;SDS011;4218;48.326;14.304;2023-04-29T02:16:38;96.77;;;33.10;;
8361;SDS011;4218;48.326;14.304;2023-04-29T02:19:04;58.23;;;53.07;;
8361;SDS011;4218;48.326;14.304;2023-04-29T02:21:29;42.90;;;35.97;;
8361;SDS011;4218;48.326;14.304;2023-04-29T02:23:55;40.90;;;28.97;;
8361;SDS011;4218;48.326;14.304;2023-04-29T02:26:21;39.27;;;34.63;;
8361;SDS011;4218;48.326;14.304;2023-04-29T02:28:47;38.73;;;30.70;;
8361;SDS011;4218;48.326;14.304;2023-04-29T02:31:13;67.67;;;43.93;;
8361;SDS011;4218;48.326;14.304;2023-04-29T02:33:38;39.50;;;34.87;;
8361;SDS011;4218;48.326;14.304;2023-04-29T02:36:04;45.13;;;34.70;;
8361;SDS011;4218;48.326;14.304;2023-04-29T02:38:29;79.27;;;33.47;;
8361;SDS011;4218;48.326;14.304;2023-04-29T02:40:54;42.27;;;29.70;;
8361;SDS011;4218;48.326;14.304;2023-04-29T02:43:20;73.90;;;37.07;;
8361;SDS011;4218;48.326;14.304;2023-04-29T02:45:46;64.60;;;59.47;;
8361;SDS011;4218;48.326;14.304;2023-04-29T02:48:11;57.30;;;51.83;;
8361;SDS011;4218;48.326;14.304;2023-04-29T02:50:36;48.33;;;44.07;;
8361;SDS011;4218;48.326;14.304;2023-04-29T02:53:02;62.07;;;56.60;;
8361;SDS011;4218;48.326;14.304;2023-04-29T02:55:27;63.30;;;57.37;;
8361;SDS011;4218;48.326;14.304;2023-04-29T02:57:52;59.13;;;53.30;;
8361;SDS011;4218;48.326;14.304;2023-04-29T03:00:18;58.53;;;53.67;;
8361;SDS011;4218;48.326;14.304;2023-04-29T03:02:43;73.33;;;48.80;;
8361;SDS011;4218;48.326;14.304;2023-04-29T03:05:08;58.53;;;53.50;;
8361;SDS011;4218;48.326;14.304;2023-04-29T03:07:34;68.17;;;45.20;;
8361;SDS011;4218;48.326;14.304;2023-04-29T03:10:00;55.73;;;50.33;;
8361;SDS011;4218;48.326;14.304;2023-04-29T03:12:25;72.93;;;65.97;;
8361;SDS011;4218;48.326;14.304;2023-04-29T03:14:51;81.00;;;74.43;;
8361;SDS011;4218;48.326;14.304;2023-04-29T03:17:16;124.03;;;114.93;;
8361;SDS011;4218;48.326;14.304;2023-04-29T03:19:41;105.47;;;95.87;;
8361;SDS011;4218;48.326;14.304;2023-04-29T03:22:07;124.63;;;115.13;;
8361;SDS011;4218;48.326;14.304;2023-04-29T03:24:35;73.20;;;40.70;;
8361;SDS011;4218;48.326;14.304;2023-04-29T03:27:01;59.00;;;53.67;;
8361;SDS011;4218;48.326;14.304;2023-04-29T03:29:26;81.63;;;75.90;;
8361;SDS011;4218;48.326;14.304;2023-04-29T03:31:52;78.27;;;71.87;;
8361;SDS011;4218;48.326;14.304;2023-04-29T03:34:18;51.67;;;47.70;;
8361;SDS011;4218;48.326;14.304;2023-04-29T03:36:43;63.27;;;42.30;;
8361;SDS011;4218;48.326;14.304;2023-04-29T03:39:09;57.33;;;44.43;;
8361;SDS011;4218;48.326;14.304;2023-04-29T03:41:35;56.57;;;49.17;;
8361;SDS011;4218;48.326;14.304;2023-04-29T03:44:01;51.17;;;38.83;;
8361;SDS011;4218;48.326;14.304;2023-04-29T03:46:26;55.63;;;37.47;;
8361;SDS011;4218;48.326;14.304;2023-04-29T03:48:52;60.97;;;39.30;;
8361;SDS011;4218;48.326;14.304;2023-04-29T03:51:20;55.30;;;36.40;;
8361;SDS011;4218;48.326;14.304;2023-04-29T03:53:48;70.93;;;62.87;;
8361;SDS011;4218;48.326;14.304;2023-04-29T03:56:14;63.10;;;56.77;;
8361;SDS011;4218;48.326;14.304;2023-04-29T03:58:40;54.80;;;46.23;;
8361;SDS011;4218;48.326;14.304;2023-04-29T04:01:06;45.83;;;41.13;;
8361;SDS011;4218;48.326;14.304;2023-04-29T04:03:31;45.93;;;39.00;;
8361;SDS011;4218;48.326;14.304;2023-04-29T04:05:56;65.63;;;59.40;;
8361;SDS011;4218;48.326;14.304;2023-04-29T04:08:22;39.30;;;33.20;;
8361;SDS011;4218;48.326;14.304;2023-04-29T04:10:47;47.40;;;42.43;;
8361;SDS011;4218;48.326;14.304;2023-04-29T04:13:12;76.07;;;69.90;;
8361;SDS011;4218;48.326;14.304;2023-04-29T04:15:38;56.07;;;48.03;;
8361;SDS011;4218;48.326;14.304;2023-04-29T04:18:04;48.77;;;38.70;;
8361;SDS011;4218;48.326;14.304;2023-04-29T04:20:30;44.10;;;30.30;;
8361;SDS011;4218;48.326;14.304;2023-04-29T04:22:55;50.67;;;45.23;;
8361;SDS011;4218;48.326;14.304;2023-04-29T04:25:20;41.97;;;36.57;;
8361;SDS011;4218;48.326;14.304;2023-04-29T04:27:46;42.27;;;36.00;;
8361;SDS011;4218;48.326;14.304;2023-04-29T04:30:11;47.77;;;33.73;;
8361;SDS011;4218;48.326;14.304;2023-04-29T04:32:37;50.03;;;34.40;;
8361;SDS011;4218;48.326;14.304;2023-04-29T04:35:04;55.53;;;44.77;;
8361;SDS011;4218;48.326;14.304;2023-04-29T04:37:30;58.93;;;38.80;;
8361;SDS011;4218;48.326;14.304;2023-04-29T04:39:55;54.30;;;43.43;;
8361;SDS011;4218;48.326;14.304;2023-04-29T04:42:21;53.13;;;40.70;;
8361;SDS011;4218;48.326;14.304;2023-04-29T04:44:49;80.73;;;60.23;;
8361;SDS011;4218;48.326;14.304;2023-04-29T04:47:17;75.87;;;39.90;;
8361;SDS011;4218;48.326;14.304;2023-04-29T04:49:42;123.30;;;112.13;;
8361;SDS011;4218;48.326;14.304;2023-04-29T04:52:08;69.33;;;46.17;;
8361;SDS011;4218;48.326;14.304;2023-04-29T04:54:33;55.60;;;33.50;;
8361;SDS011;4218;48.326;14.304;2023-04-29T04:56:59;56.03;;;39.10;;
8361;SDS011;4218;48.326;14.304;2023-04-29T04:59:25;72.63;;;65.83;;
8361;SDS011;4218;48.326;14.304;2023-04-29T05:01:50;53.30;;;44.97;;
8361;SDS011;4218;48.326;14.304;2023-04-29T05:04:16;40.10;;;29.47;;
8361;SDS011;4218;48.326;14.304;2023-04-29T05:06:41;48.23;;;36.43;;
8361;SDS011;4218;48.326;14.304;2023-04-29T05:09:06;48.60;;;43.57;;
8361;SDS011;4218;48.326;14.304;2023-04-29T05:11:32;77.43;;;70.77;;
8361;SDS011;4218;48.326;14.304;2023-04-29T05:13:57;113.50;;;105.00;;
8361;SDS011;4218;48.326;14.304;2023-04-29T05:16:22;77.23;;;70.07;;
8361;SDS011;4218;48.326;14.304;2023-04-29T05:18:48;51.43;;;46.50;;
8361;SDS011;4218;48.326;14.304;2023-04-29T05:21:13;103.23;;;95.13;;
8361;SDS011;4218;48.326;14.304;2023-04-29T05:23:38;65.43;;;59.33;;
8361;SDS011;4218;48.326;14.304;2023-04-29T05:26:04;60.53;;;54.07;;
8361;SDS011;4218;48.326;14.304;2023-04-29T05:28:29;64.13;;;54.67;;
8361;SDS011;4218;48.326;14.304;2023-04-29T05:30:55;50.83;;;40.50;;
8361;SDS011;4218;48.326;14.304;2023-04-29T05:33:20;46.93;;;38.93;;
8361;SDS011;4218;48.326;14.304;2023-04-29T05:35:46;54.17;;;48.00;;
8361;SDS011;4218;48.326;14.304;2023-04-29T05:38:11;63.07;;;56.97;;
8361;SDS011;4218;48.326;14.304;2023-04-29T05:40:37;63.37;;;50.30;;
8361;SDS011;4218;48.326;14.304;2023-04-29T05:43:02;60.50;;;42.57;;
8361;SDS011;4218;48.326;14.304;2023-04-29T05:45:27;58.60;;;37.37;;
8361;SDS011;4218;48.326;14.304;2023-04-29T05:47:53;57.23;;;38.83;;
8361;SDS011;4218;48.326;14.304;2023-04-29T05:50:18;64.00;;;51.40;;
8361;SDS011;4218;48.326;14.304;2023-04-29T05:52:44;119.80;;;108.80;;
8361;SDS011;4218;48.326;14.304;2023-04-29T05:55:09;106.63;;;96.17;;
8361;SDS011;4218;48.326;14.304;2023-04-29T05:57:35;79.10;;;70.57;;
8361;SDS011;4218;48.326;14.304;2023-04-29T06:00:00;114.87;;;104.83;;
8361;SDS011;4218;48.326;14.304;2023-04-29T06:02:26;68.70;;;56.67;;
8361;SDS011;4218;48.326;14.304;2023-04-29T06:04:51;86.37;;;76.60;;
8361;SDS011;4218;48.326;14.304;2023-04-29T06:07:17;91.90;;;81.67;;
8361;SDS011;4218;48.326;14.304;2023-04-29T06:09:43;118.20;;;108.07;;
8361;SDS011;4218;48.326;14.304;2023-04-29T06:12:08;62.33;;;49.47;;
8361;SDS011;4218;48.326;14.304;2023-04-29T06:14:34;52.70;;;38.30;;
8361;SDS011;4218;48.326;14.304;2023-04-29T06:16:59;90.50;;;79.63;;
8361;SDS011;4218;48.326;14.304;2023-04-29T06:19:25;110.60;;;98.93;;
8361;SDS011;4218;48.326;14.304;2023-04-29T06:21:50;73.77;;;58.97;;
8361;SDS011;4218;48.326;14.304;2023-04-29T06:24:15;94.07;;;84.33;;
8361;SDS011;4218;48.326;14.304;2023-04-29T06:26:41;59.70;;;52.80;;
8361;SDS011;4218;48.326;14.304;2023-04-29T06:29:06;58.17;;;52.13;;
8361;SDS011;4218;48.326;14.304;2023-04-29T06:31:32;55.87;;;44.47;;
8361;SDS011;4218;48.326;14.304;2023-04-29T06:34:00;114.03;;;104.83;;
8361;SDS011;4218;48.326;14.304;2023-04-29T06:36:26;74.93;;;67.67;;
8361;SDS011;4218;48.326;14.304;2023-04-29T06:38:52;76.50;;;68.83;;
8361;SDS011;4218;48.326;14.304;2023-04-29T06:41:17;71.20;;;57.67;;
8361;SDS011;4218;48.326;14.304;2023-04-29T06:43:43;59.03;;;43.10;;
8361;SDS011;4218;48.326;14.304;2023-04-29T06:46:08;65.43;;;57.53;;
8361;SDS011;4218;48.326;14.304;2023-04-29T06:48:34;65.73;;;58.63;;
8361;SDS011;4218;48.326;14.304;2023-04-29T06:51:00;64.13;;;53.30;;
8361;SDS011;4218;48.326;14.304;2023-04-29T06:53:25;71.47;;;57.93;;
8361;SDS011;4218;48.326;14.304;2023-04-29T06:55:51;69.37;;;49.23;;
8361;SDS011;4218;48.326;14.304;2023-04-29T06:58:17;75.47;;;61.87;;
8361;SDS011;4218;48.326;14.304;2023-04-29T07:00:43;71.80;;;53.23;;
8361;SDS011;4218;48.326;14.304;2023-04-29T07:03:10;79.83;;;71.90;;
8361;SDS011;4218;48.326;14.304;2023-04-29T07:05:36;60.37;;;48.43;;
8361;SDS011;4218;48.326;14.304;2023-04-29T07:08:04;51.97;;;42.73;;
8361;SDS011;4218;48.326;14.304;2023-04-29T07:10:30;58.37;;;52.33;;
8361;SDS011;4218;48.326;14.304;2023-04-29T07:12:55;47.53;;;35.83;;
8361;SDS011;4218;48.326;14.304;2023-04-29T07:15:21;51.90;;;46.70;;
8361;SDS011;4218;48.326;14.304;2023-04-29T07:17:46;43.00;;;33.70;;
8361;SDS011;4218;48.326;14.304;2023-04-29T07:20:12;56.47;;;50.63;;
8361;SDS011;4218;48.326;14.304;2023-04-29T07:22:38;70.10;;;64.63;;
8361;SDS011;4218;48.326;14.304;2023-04-29T07:25:03;55.63;;;50.03;;
8361;SDS011;4218;48.326;14.304;2023-04-29T07:27:29;52.17;;;47.53;;
8361;SDS011;4218;48.326;14.304;2023-04-29T07:29:55;43.90;;;39.43;;
8361;SDS011;4218;48.326;14.304;2023-04-29T07:32:21;45.67;;;40.97;;
8361;SDS011;4218;48.326;14.304;2023-04-29T07:34:47;59.57;;;53.70;;
8361;SDS011;4218;48.326;14.304;2023-04-29T07:37:12;75.07;;;68.67;;
8361;SDS011;4218;48.326;14.304;2023-04-29T07:39:38;59.60;;;53.97;;
8361;SDS011;4218;48.326;14.304;2023-04-29T07:42:03;81.00;;;74.10;;
8361;SDS011;4218;48.326;14.304;2023-04-29T07:44:28;57.80;;;50.63;;
8361;SDS011;4218;48.326;14.304;2023-04-29T07:46:54;56.60;;;48.67;;
8361;SDS011;4218;48.326;14.304;2023-04-29T07:49:19;70.50;;;63.33;;
8361;SDS011;4218;48.326;14.304;2023-04-29T07:51:44;56.58;;;43.28;;
8361;SDS011;4218;48.326;14.304;2023-04-29T07:54:10;86.07;;;78.50;;
8361;SDS011;4218;48.326;14.304;2023-04-29T07:56:35;99.20;;;91.53;;
8361;SDS011;4218;48.326;14.304;2023-04-29T07:59:01;57.90;;;51.87;;
8361;SDS011;4218;48.326;14.304;2023-04-29T08:01:26;75.50;;;69.40;;
8361;SDS011;4218;48.326;14.304;2023-04-29T08:03:52;66.90;;;61.67;;
8361;SDS011;4218;48.326;14.304;2023-04-29T08:06:18;46.30;;;41.57;;
8361;SDS011;4218;48.326;14.304;2023-04-29T08:08:46;44.43;;;40.33;;
8361;SDS011;4218;48.326;14.304;2023-04-29T08:11:15;45.13;;;41.03;;
8361;SDS011;4218;48.326;14.304;2023-04-29T08:13:44;52.77;;;48.57;;
8361;SDS011;4218;48.326;14.304;2023-04-29T08:16:10;70.80;;;65.83;;
8361;SDS011;4218;48.326;14.304;2023-04-29T08:18:36;43.43;;;40.23;;
8361;SDS011;4218;48.326;14.304;2023-04-29T08:21:01;45.00;;;41.60;;
8361;SDS011;4218;48.326;14.304;2023-04-29T08:23:27;83.90;;;78.80;;
8361;SDS011;4218;48.326;14.304;2023-04-29T08:25:53;58.07;;;54.53;;
8361;SDS011;4218;48.326;14.304;2023-04-29T08:28:20;37.53;;;35.20;;
8361;SDS011;4218;48.326;14.304;2023-04-29T08:30:45;43.83;;;41.23;;
8361;SDS011;4218;48.326;14.304;2023-04-29T08:33:11;28.47;;;26.77;;
8361;SDS011;4218;48.326;14.304;2023-04-29T08:35:37;28.40;;;26.63;;
8361;SDS011;4218;48.326;14.304;2023-04-29T08:38:03;32.67;;;30.57;;
8361;SDS011;4218;48.326;14.304;2023-04-29T08:40:32;46.17;;;43.57;;
8361;SDS011;4218;48.326;14.304;2023-04-29T08:42:58;39.33;;;37.20;;
8361;SDS011;4218;48.326;14.304;2023-04-29T08:45:24;34.20;;;32.33;;
8361;SDS011;4218;48.326;14.304;2023-04-29T08:47:52;32.27;;;30.67;;
8361;SDS011;4218;48.326;14.304;2023-04-29T08:50:20;18.70;;;17.80;;
8361;SDS011;4218;48.326;14.304;2023-04-29T08:52:46;45.13;;;42.83;;
8361;SDS011;4218;48.326;14.304;2023-04-29T08:55:11;30.03;;;28.27;;
8361;SDS011;4218;48.326;14.304;2023-04-29T08:57:37;27.20;;;25.90;;
8361;SDS011;4218;48.326;14.304;2023-04-29T09:00:04;27.27;;;25.97;;
8361;SDS011;4218;48.326;14.304;2023-04-29T09:02:32;23.27;;;22.10;;
8361;SDS011;4218;48.326;14.304;2023-04-29T09:05:07;24.87;;;23.67;;
8361;SDS011;4218;48.326;14.304;2023-04-29T09:07:35;35.97;;;34.10;;
8361;SDS011;4218;48.326;14.304;2023-04-29T09:10:03;55.63;;;52.93;;
8361;SDS011;4218;48.326;14.304;2023-04-29T09:12:29;39.43;;;37.53;;
8361;SDS011;4218;48.326;14.304;2023-04-29T09:14:55;37.80;;;36.00;;
8361;SDS011;4218;48.326;14.304;2023-04-29T09:22:58;37.33;;;35.47;;
8361;SDS011;4218;48.326;14.304;2023-04-29T09:25:25;28.27;;;26.87;;
8361;SDS011;4218;48.326;14.304;2023-04-29T09:27:52;31.00;;;29.47;;
8361;SDS011;4218;48.326;14.304;2023-04-29T09:30:18;28.43;;;26.83;;
8361;SDS011;4218;48.326;14.304;2023-04-29T09:32:45;29.07;;;27.60;;
8361;SDS011;4218;48.326;14.304;2023-04-29T09:35:21;46.53;;;44.40;;
8361;SDS011;4218;48.326;14.304;2023-04-29T09:37:47;27.93;;;26.53;;
8361;SDS011;4218;48.326;14.304;2023-04-29T09:40:31;25.57;;;24.27;;
8361;SDS011;4218;48.326;14.304;2023-04-29T09:42:58;41.40;;;39.40;;
8361;SDS011;4218;48.326;14.304;2023-04-29T09:45:34;30.87;;;29.37;;
8361;SDS011;4218;48.326;14.304;2023-04-29T09:48:01;68.83;;;65.53;;
8361;SDS011;4218;48.326;14.304;2023-04-29T09:50:27;73.27;;;69.67;;
8361;SDS011;4218;48.326;14.304;2023-04-29T09:52:53;76.47;;;72.83;;
8361;SDS011;4218;48.326;14.304;2023-04-29T09:55:19;52.77;;;50.20;;
8361;SDS011;4218;48.326;14.304;2023-04-29T09:57:44;70.40;;;67.03;;
8361;SDS011;4218;48.326;14.304;2023-04-29T10:00:10;116.37;;;111.03;;
8361;SDS011;4218;48.326;14.304;2023-04-29T10:02:37;68.53;;;65.00;;
8361;SDS011;4218;48.326;14.304;2023-04-29T10:05:07;42.33;;;40.23;;
8361;SDS011;4218;48.326;14.304;2023-04-29T10:07:34;29.33;;;27.73;;
8361;SDS011;4218;48.326;14.304;2023-04-29T10:10:02;29.03;;;27.60;;
8361;SDS011;4218;48.326;14.304;2023-04-29T10:12:29;37.60;;;35.67;;
8361;SDS011;4218;48.326;14.304;2023-04-29T10:15:01;62.93;;;59.93;;
8361;SDS011;4218;48.326;14.304;2023-04-29T10:17:35;44.83;;;42.70;;
8361;SDS011;4218;48.326;14.304;2023-04-29T10:20:12;42.30;;;40.17;;
8361;SDS011;4218;48.326;14.304;2023-04-29T10:22:46;27.77;;;26.37;;
8361;SDS011;4218;48.326;14.304;2023-04-29T10:25:17;24.43;;;23.23;;
8361;SDS011;4218;48.326;14.304;2023-04-29T10:27:44;28.93;;;27.53;;
8361;SDS011;4218;48.326;14.304;2023-04-29T10:30:11;33.03;;;31.47;;
8361;SDS011;4218;48.326;14.304;2023-04-29T10:32:47;42.27;;;40.17;;
8361;SDS011;4218;48.326;14.304;2023-04-29T10:35:14;45.23;;;43.13;;
8361;SDS011;4218;48.326;14.304;2023-04-29T10:37:43;37.80;;;35.93;;
8361;SDS011;4218;48.326;14.304;2023-04-29T10:43:13;35.67;;;33.97;;
8361;SDS011;4218;48.326;14.304;2023-04-29T10:45:34;34.03;;;32.23;;
8361;SDS011;4218;48.326;14.304;2023-04-29T10:53:09;39.97;;;37.77;;
8361;SDS011;4218;48.326;14.304;2023-04-29T10:55:35;23.23;;;22.13;;
8361;SDS011;4218;48.326;14.304;2023-04-29T10:58:02;30.70;;;29.23;;
8361;SDS011;4218;48.326;14.304;2023-04-29T11:00:32;19.17;;;18.30;;
8361;SDS011;4218;48.326;14.304;2023-04-29T11:03:04;18.63;;;17.60;;
8361;SDS011;4218;48.326;14.304;2023-04-29T11:10:41;28.53;;;27.20;;
8361;SDS011;4218;48.326;14.304;2023-04-29T11:13:19;23.37;;;22.13;;
8361;SDS011;4218;48.326;14.304;2023-04-29T11:15:53;40.50;;;38.63;;
8361;SDS011;4218;48.326;14.304;2023-04-29T11:18:32;25.33;;;24.23;;
8361;SDS011;4218;48.326;14.304;2023-04-29T11:23:35;34.37;;;32.77;;
8361;SDS011;4218;48.326;14.304;2023-04-29T11:26:02;25.43;;;24.27;;
8361;SDS011;4218;48.326;14.304;2023-04-29T11:28:31;19.40;;;18.60;;
8361;SDS011;4218;48.326;14.304;2023-04-29T11:30:57;27.97;;;26.77;;
8361;SDS011;4218;48.326;14.304;2023-04-29T11:33:24;20.23;;;19.33;;
8361;SDS011;4218;48.326;14.304;2023-04-29T11:35:51;25.13;;;23.83;;
8361;SDS011;4218;48.326;14.304;2023-04-29T11:38:22;30.77;;;29.37;;
8361;SDS011;4218;48.326;14.304;2023-04-29T11:40:51;24.40;;;23.30;;
8361;SDS011;4218;48.326;14.304;2023-04-29T11:43:19;24.77;;;23.57;;
8361;SDS011;4218;48.326;14.304;2023-04-29T11:45:45;23.23;;;22.17;;
8361;SDS011;4218;48.326;14.304;2023-04-29T11:48:20;22.83;;;21.83;;
8361;SDS011;4218;48.326;14.304;2023-04-29T11:50:47;20.93;;;19.93;;
8361;SDS011;4218;48.326;14.304;2023-04-29T11:53:14;25.83;;;24.40;;
8361;SDS011;4218;48.326;14.304;2023-04-29T11:55:46;21.33;;;20.33;;
8361;SDS011;4218;48.326;14.304;2023-04-29T11:58:12;21.37;;;20.27;;
8361;SDS011;4218;48.326;14.304;2023-04-29T12:00:38;25.37;;;24.27;;
8361;SDS011;4218;48.326;14.304;2023-04-29T12:05:44;26.53;;;25.23;;
8361;SDS011;4218;48.326;14.304;2023-04-29T12:08:20;20.13;;;19.23;;
8361;SDS011;4218;48.326;14.304;2023-04-29T12:10:53;18.97;;;18.17;;
8361;SDS011;4218;48.326;14.304;2023-04-29T12:13:20;23.20;;;22.17;;
8361;SDS011;4218;48.326;14.304;2023-04-29T12:15:48;25.73;;;24.63;;
8361;SDS011;4218;48.326;14.304;2023-04-29T12:18:15;25.37;;;24.17;;
8361;SDS011;4218;48.326;14.304;2023-04-29T12:20:42;19.10;;;18.10;;
8361;SDS011;4218;48.326;14.304;2023-04-29T12:23:15;29.57;;;28.23;;
8361;SDS011;4218;48.326;14.304;2023-04-29T12:25:50;29.07;;;27.83;;
8361;SDS011;4218;48.326;14.304;2023-04-29T12:28:17;35.93;;;34.23;;
8361;SDS011;4218;48.326;14.304;2023-04-29T12:30:44;27.27;;;26.07;;
8361;SDS011;4218;48.326;14.304;2023-04-29T12:33:14;29.03;;;27.77;;
8361;SDS011;4218;48.326;14.304;2023-04-29T12:35:40;47.83;;;45.53;;
8361;SDS011;4218;48.326;14.304;2023-04-29T12:38:06;19.03;;;18.23;;
8361;SDS011;4218;48.326;14.304;2023-04-29T12:40:32;35.60;;;34.07;;
8361;SDS011;4218;48.326;14.304;2023-04-29T12:43:05;21.50;;;20.53;;
8361;SDS011;4218;48.326;14.304;2023-04-29T12:45:32;22.60;;;21.60;;
8361;SDS011;4218;48.326;14.304;2023-04-29T12:47:58;26.63;;;25.43;;
8361;SDS011;4218;48.326;14.304;2023-04-29T12:50:31;27.47;;;26.27;;
8361;SDS011;4218;48.326;14.304;2023-04-29T12:52:58;18.87;;;17.87;;
8361;SDS011;4218;48.326;14.304;2023-04-29T12:55:24;121.87;;;116.33;;
8361;SDS011;4218;48.326;14.304;2023-04-29T12:57:50;24.00;;;22.97;;
8361;SDS011;4218;48.326;14.304;2023-04-29T13:00:15;24.10;;;23.00;;
8361;SDS011;4218;48.326;14.304;2023-04-29T13:02:41;21.13;;;19.87;;
8361;SDS011;4218;48.326;14.304;2023-04-29T13:05:06;49.07;;;46.83;;
8361;SDS011;4218;48.326;14.304;2023-04-29T13:07:32;21.07;;;20.07;;
8361;SDS011;4218;48.326;14.304;2023-04-29T13:09:57;17.77;;;16.97;;
8361;SDS011;4218;48.326;14.304;2023-04-29T13:12:22;21.50;;;20.50;;
8361;SDS011;4218;48.326;14.304;2023-04-29T13:14:48;24.93;;;23.83;;
8361;SDS011;4218;48.326;14.304;2023-04-29T13:17:15;23.07;;;22.07;;
8361;SDS011;4218;48.326;14.304;2023-04-29T13:19:40;26.03;;;24.83;;
8361;SDS011;4218;48.326;14.304;2023-04-29T13:22:08;24.53;;;23.47;;
8361;SDS011;4218;48.326;14.304;2023-04-29T13:24:33;24.30;;;23.23;;
8361;SDS011;4218;48.326;14.304;2023-04-29T13:27:01;32.93;;;31.50;;
8361;SDS011;4218;48.326;14.304;2023-04-29T13:29:27;19.63;;;18.83;;
8361;SDS011;4218;48.326;14.304;2023-04-29T13:31:53;18.57;;;17.77;;
8361;SDS011;4218;48.326;14.304;2023-04-29T13:34:18;19.80;;;18.90;;
8361;SDS011;4218;48.326;14.304;2023-04-29T13:36:44;26.33;;;25.23;;
8361;SDS011;4218;48.326;14.304;2023-04-29T13:39:10;26.73;;;25.53;;
8361;SDS011;4218;48.326;14.304;2023-04-29T13:41:35;18.47;;;17.60;;
8361;SDS011;4218;48.326;14.304;2023-04-29T13:44:00;18.47;;;17.73;;
8361;SDS011;4218;48.326;14.304;2023-04-29T13:46:26;22.87;;;21.70;;
8361;SDS011;4218;48.326;14.304;2023-04-29T13:48:52;27.93;;;26.70;;
8361;SDS011;4218;48.326;14.304;2023-04-29T13:51:18;16.07;;;15.37;;
8361;SDS011;4218;48.326;14.304;2023-04-29T13:53:45;16.07;;;15.37;;
8361;SDS011;4218;48.326;14.304;2023-04-29T13:56:11;24.27;;;23.20;;
8361;SDS011;4218;48.326;14.304;2023-04-29T13:58:36;17.33;;;16.43;;
8361;SDS011;4218;48.326;14.304;2023-04-29T14:01:01;17.73;;;16.87;;
8361;SDS011;4218;48.326;14.304;2023-04-29T14:03:27;21.00;;;20.03;;
8361;SDS011;4218;48.326;14.304;2023-04-29T14:05:53;16.53;;;15.57;;
8361;SDS011;4218;48.326;14.304;2023-04-29T14:08:18;18.17;;;17.27;;
8361;SDS011;4218;48.326;14.304;2023-04-29T14:10:44;16.63;;;15.93;;
8361;SDS011;4218;48.326;14.304;2023-04-29T14:13:09;20.60;;;19.40;;
8361;SDS011;4218;48.326;14.304;2023-04-29T14:15:35;23.00;;;21.70;;
8361;SDS011;4218;48.326;14.304;2023-04-29T14:18:00;13.00;;;12.47;;
8361;SDS011;4218;48.326;14.304;2023-04-29T14:20:25;17.00;;;16.07;;
8361;SDS011;4218;48.326;14.304;2023-04-29T14:22:51;22.87;;;21.77;;
8361;SDS011;4218;48.326;14.304;2023-04-29T14:25:17;20.53;;;19.63;;
8361;SDS011;4218;48.326;14.304;2023-04-29T14:27:42;18.77;;;18.00;;
8361;SDS011;4218;48.326;14.304;2023-04-29T14:30:08;22.57;;;21.63;;
8361;SDS011;4218;48.326;14.304;2023-04-29T14:32:33;14.27;;;13.67;;
8361;SDS011;4218;48.326;14.304;2023-04-29T14:34:58;24.63;;;23.60;;
8361;SDS011;4218;48.326;14.304;2023-04-29T14:37:24;21.13;;;20.20;;
8361;SDS011;4218;48.326;14.304;2023-04-29T14:39:50;22.80;;;21.80;;
8361;SDS011;4218;48.326;14.304;2023-04-29T14:42:16;20.93;;;20.03;;
8361;SDS011;4218;48.326;14.304;2023-04-29T14:44:42;16.50;;;15.77;;
8361;SDS011;4218;48.326;14.304;2023-04-29T14:47:08;24.90;;;23.77;;
8361;SDS011;4218;48.326;14.304;2023-04-29T14:49:33;20.47;;;19.57;;
8361;SDS011;4218;48.326;14.304;2023-04-29T14:51:59;24.93;;;23.83;;
8361;SDS011;4218;48.326;14.304;2023-04-29T14:54:24;14.23;;;13.63;;
8361;SDS011;4218;48.326;14.304;2023-04-29T14:56:51;14.23;;;13.63;;
8361;SDS011;4218;48.326;14.304;2023-04-29T14:59:16;22.30;;;21.37;;
8361;SDS011;4218;48.326;14.304;2023-04-29T15:01:42;20.67;;;19.80;;
8361;SDS011;4218;48.326;14.304;2023-04-29T15:04:07;20.30;;;19.40;;